Sulphur, Louisiana
Current Conditions -  °F | °C
As of 8:35 AM on Thursday 27 Nov 2014 (Local Time) from KUXL Reporting Station
Clear Clear  
Wind Chill: 51°   Ceiling: Unl
Heat Index: 51°   Visibility: 10mi
Dew Point: 35°   Wind: 12mph
Humidity: 53%   Direction: 20°NNE
Pressure: 30.48"   Gusts: 16mph
Location:  30.24°N, 93.38°W
Report Text: KUXL 271435Z AUTO 02010G14KT 10SM CLR 11/01 A3048 RMK AO2 T01070014
Loading
Personal Weather Stations






























Interactive Weather Map New forecast layout! Learn more

10-Day Weather Forecast

Advertisements
Track Severe Weather on mobile